Terminal Aerodrome Forecast
Issued by NWS Dallas/Fort Worth, TX

Home | Current Version | Previous Version | Text Only | Print | Product List | Glossary On
Versions: 1 2 3 4 5 6 7 8 9 10 11 12 13 14 15 16 17 18 19 20 21 22 23 24 25
950
FTUS44 KFWD 101739
TAFACT
TAF
KACT 101739Z 1018/1118 16013KT P6SM FEW025 OVC035
     FM102100 17014KT P6SM BKN025
     FM110300 18015KT P6SM -DZ OVC012
      TEMPO 1108/1112 4SM BR BKN006
     FM111600 20015G25KT P6SM BKN018=

USA.gov is the U.S. government's official web portal to all federal, state and local government web resources and services.